sensor_id;sensor_type;location;lat;lon;timestamp;temperature;humidity
28438;DHT22;15667;52.376;9.708;2023-03-14T00:06:50;12.20;99.90
28438;DHT22;15667;52.376;9.708;2023-03-14T00:11:44;12.30;99.90
28438;DHT22;15667;52.376;9.708;2023-03-14T00:14:11;12.30;99.90
28438;DHT22;15667;52.376;9.708;2023-03-14T00:16:37;13.10;99.90
28438;DHT22;15667;52.376;9.708;2023-03-14T00:21:28;12.30;99.90
28438;DHT22;15667;52.376;9.708;2023-03-14T00:23:57;12.30;99.90
28438;DHT22;15667;52.376;9.708;2023-03-14T00:26:25;12.80;99.90
28438;DHT22;15667;52.376;9.708;2023-03-14T00:28:52;12.30;99.90
28438;DHT22;15667;52.376;9.708;2023-03-14T00:31:18;12.00;99.90
28438;DHT22;15667;52.376;9.708;2023-03-14T00:33:44;12.70;99.90
28438;DHT22;15667;52.376;9.708;2023-03-14T00:36:13;12.30;99.90
28438;DHT22;15667;52.376;9.708;2023-03-14T00:38:41;12.60;99.90
28438;DHT22;15667;52.376;9.708;2023-03-14T00:41:09;13.40;99.90
28438;DHT22;15667;52.376;9.708;2023-03-14T00:43:39;12.20;99.90
28438;DHT22;15667;52.376;9.708;2023-03-14T00:46:04;12.30;99.90
28438;DHT22;15667;52.376;9.708;2023-03-14T00:48:30;12.40;99.90
28438;DHT22;15667;52.376;9.708;2023-03-14T00:53:22;12.30;99.90
28438;DHT22;15667;52.376;9.708;2023-03-14T00:58:16;11.70;99.90
28438;DHT22;15667;52.376;9.708;2023-03-14T01:00:42;13.10;99.90
28438;DHT22;15667;52.376;9.708;2023-03-14T01:03:09;12.50;99.90
28438;DHT22;15667;52.376;9.708;2023-03-14T01:05:36;11.70;99.90
28438;DHT22;15667;52.376;9.708;2023-03-14T01:08:02;12.40;99.90
28438;DHT22;15667;52.376;9.708;2023-03-14T01:12:54;12.60;99.90
28438;DHT22;15667;52.376;9.708;2023-03-14T01:17:46;12.10;99.90
28438;DHT22;15667;52.376;9.708;2023-03-14T01:20:13;11.50;99.90
28438;DHT22;15667;52.376;9.708;2023-03-14T01:22:40;12.20;99.90
28438;DHT22;15667;52.376;9.708;2023-03-14T01:25:14;12.00;99.90
28438;DHT22;15667;52.376;9.708;2023-03-14T01:27:40;12.10;99.90
28438;DHT22;15667;52.376;9.708;2023-03-14T01:30:07;13.10;99.90
28438;DHT22;15667;52.376;9.708;2023-03-14T01:32:34;12.10;99.90
28438;DHT22;15667;52.376;9.708;2023-03-14T01:35:00;12.10;99.90
28438;DHT22;15667;52.376;9.708;2023-03-14T01:37:25;13.50;99.90
28438;DHT22;15667;52.376;9.708;2023-03-14T01:39:51;13.00;99.90
28438;DHT22;15667;52.376;9.708;2023-03-14T01:44:56;12.50;99.90
28438;DHT22;15667;52.376;9.708;2023-03-14T01:50:08;12.00;99.90
28438;DHT22;15667;52.376;9.708;2023-03-14T01:52:43;12.00;99.90
28438;DHT22;15667;52.376;9.708;2023-03-14T01:55:16;11.90;99.90
28438;DHT22;15667;52.376;9.708;2023-03-14T01:57:55;12.10;99.90
28438;DHT22;15667;52.376;9.708;2023-03-14T02:00:23;13.50;99.90
28438;DHT22;15667;52.376;9.708;2023-03-14T02:02:56;12.00;99.90
28438;DHT22;15667;52.376;9.708;2023-03-14T02:05:26;12.40;99.90
28438;DHT22;15667;52.376;9.708;2023-03-14T02:07:56;12.20;99.90
28438;DHT22;15667;52.376;9.708;2023-03-14T02:10:28;12.20;99.90
28438;DHT22;15667;52.376;9.708;2023-03-14T02:12:56;12.00;99.90
28438;DHT22;15667;52.376;9.708;2023-03-14T02:17:48;12.20;99.90
28438;DHT22;15667;52.376;9.708;2023-03-14T02:20:46;12.70;99.90
28438;DHT22;15667;52.376;9.708;2023-03-14T02:23:15;12.10;99.90
28438;DHT22;15667;52.376;9.708;2023-03-14T02:25:48;12.40;99.90
28438;DHT22;15667;52.376;9.708;2023-03-14T02:28:16;12.20;99.90
28438;DHT22;15667;52.376;9.708;2023-03-14T02:30:42;11.90;99.90
28438;DHT22;15667;52.376;9.708;2023-03-14T02:33:11;12.10;99.90
28438;DHT22;15667;52.376;9.708;2023-03-14T02:35:47;12.10;99.90
28438;DHT22;15667;52.376;9.708;2023-03-14T02:38:24;12.40;99.90
28438;DHT22;15667;52.376;9.708;2023-03-14T02:40:52;12.10;99.90
28438;DHT22;15667;52.376;9.708;2023-03-14T02:43:18;12.10;99.90
28438;DHT22;15667;52.376;9.708;2023-03-14T02:45:46;12.10;99.90
28438;DHT22;15667;52.376;9.708;2023-03-14T02:48:27;12.10;99.90
28438;DHT22;15667;52.376;9.708;2023-03-14T02:50:58;12.10;99.90
28438;DHT22;15667;52.376;9.708;2023-03-14T02:53:33;13.50;99.90
28438;DHT22;15667;52.376;9.708;2023-03-14T02:55:59;12.00;99.90
28438;DHT22;15667;52.376;9.708;2023-03-14T02:58:25;11.90;99.90
28438;DHT22;15667;52.376;9.708;2023-03-14T03:00:51;12.20;99.90
28438;DHT22;15667;52.376;9.708;2023-03-14T03:03:17;12.00;99.90
28438;DHT22;15667;52.376;9.708;2023-03-14T03:05:47;12.80;99.90
28438;DHT22;15667;52.376;9.708;2023-03-14T03:13:04;12.30;99.90
28438;DHT22;15667;52.376;9.708;2023-03-14T03:15:30;11.90;99.90
28438;DHT22;15667;52.376;9.708;2023-03-14T03:17:56;12.00;99.90
28438;DHT22;15667;52.376;9.708;2023-03-14T03:20:22;12.10;99.90
28438;DHT22;15667;52.376;9.708;2023-03-14T03:25:15;12.00;99.90
28438;DHT22;15667;52.376;9.708;2023-03-14T03:30:08;11.90;99.90
28438;DHT22;15667;52.376;9.708;2023-03-14T03:32:34;11.80;99.90
28438;DHT22;15667;52.376;9.708;2023-03-14T03:35:01;13.00;99.90
28438;DHT22;15667;52.376;9.708;2023-03-14T03:37:27;11.60;99.90
28438;DHT22;15667;52.376;9.708;2023-03-14T03:42:19;11.80;99.90
28438;DHT22;15667;52.376;9.708;2023-03-14T03:44:45;12.40;99.90
28438;DHT22;15667;52.376;9.708;2023-03-14T03:49:36;11.20;99.90
28438;DHT22;15667;52.376;9.708;2023-03-14T03:52:02;11.10;99.90
28438;DHT22;15667;52.376;9.708;2023-03-14T03:54:28;10.40;99.90
28438;DHT22;15667;52.376;9.708;2023-03-14T03:59:20;9.60;99.90
28438;DHT22;15667;52.376;9.708;2023-03-14T04:13:57;9.30;99.90
28438;DHT22;15667;52.376;9.708;2023-03-14T04:16:24;9.00;99.90
28438;DHT22;15667;52.376;9.708;2023-03-14T04:18:50;9.00;99.90
28438;DHT22;15667;52.376;9.708;2023-03-14T04:26:09;8.90;99.90
28438;DHT22;15667;52.376;9.708;2023-03-14T04:28:34;8.90;99.90
28438;DHT22;15667;52.376;9.708;2023-03-14T04:31:14;10.40;99.90
28438;DHT22;15667;52.376;9.708;2023-03-14T04:36:07;8.80;99.90
28438;DHT22;15667;52.376;9.708;2023-03-14T04:40:59;9.10;99.90
28438;DHT22;15667;52.376;9.708;2023-03-14T04:43:26;9.20;99.90
28438;DHT22;15667;52.376;9.708;2023-03-14T04:45:55;8.80;99.90
28438;DHT22;15667;52.376;9.708;2023-03-14T04:48:22;8.70;99.90
28438;DHT22;15667;52.376;9.708;2023-03-14T04:53:15;8.70;99.90
28438;DHT22;15667;52.376;9.708;2023-03-14T04:55:52;9.00;99.90
28438;DHT22;15667;52.376;9.708;2023-03-14T05:03:10;8.60;99.90
28438;DHT22;15667;52.376;9.708;2023-03-14T05:05:36;9.60;99.90
28438;DHT22;15667;52.376;9.708;2023-03-14T05:12:53;8.70;99.90
28438;DHT22;15667;52.376;9.708;2023-03-14T05:15:19;9.00;99.90
28438;DHT22;15667;52.376;9.708;2023-03-14T05:17:45;8.80;99.90
28438;DHT22;15667;52.376;9.708;2023-03-14T05:20:11;9.40;99.90
28438;DHT22;15667;52.376;9.708;2023-03-14T05:25:05;8.60;99.90
28438;DHT22;15667;52.376;9.708;2023-03-14T05:30:00;8.70;99.90
28438;DHT22;15667;52.376;9.708;2023-03-14T05:34:51;8.60;99.90
28438;DHT22;15667;52.376;9.708;2023-03-14T05:37:17;7.90;99.90
28438;DHT22;15667;52.376;9.708;2023-03-14T05:39:43;8.60;99.90
28438;DHT22;15667;52.376;9.708;2023-03-14T05:44:34;8.70;99.90
28438;DHT22;15667;52.376;9.708;2023-03-14T05:47:00;9.00;99.90
28438;DHT22;15667;52.376;9.708;2023-03-14T06:01:35;9.40;99.90
28438;DHT22;15667;52.376;9.708;2023-03-14T06:04:03;10.80;99.90
28438;DHT22;15667;52.376;9.708;2023-03-14T06:21:05;9.60;99.90
28438;DHT22;15667;52.376;9.708;2023-03-14T06:38:08;10.20;99.90
28438;DHT22;15667;52.376;9.708;2023-03-14T06:55:14;10.40;99.90
28438;DHT22;15667;52.376;9.708;2023-03-14T07:00:07;10.40;99.90
28438;DHT22;15667;52.376;9.708;2023-03-14T07:04:59;10.60;99.90
28438;DHT22;15667;52.376;9.708;2023-03-14T07:09:52;10.60;99.90
28438;DHT22;15667;52.376;9.708;2023-03-14T07:12:17;10.60;99.90
28438;DHT22;15667;52.376;9.708;2023-03-14T07:14:45;10.90;99.90
28438;DHT22;15667;52.376;9.708;2023-03-14T07:22:04;10.40;99.90
28438;DHT22;15667;52.376;9.708;2023-03-14T07:51:36;10.90;99.90
28438;DHT22;15667;52.376;9.708;2023-03-14T07:56:30;10.40;99.90
28438;DHT22;15667;52.376;9.708;2023-03-14T08:01:22;10.30;99.90
28438;DHT22;15667;52.376;9.708;2023-03-14T08:03:48;12.00;99.90
28438;DHT22;15667;52.376;9.708;2023-03-14T08:11:06;10.10;99.90
28438;DHT22;15667;52.376;9.708;2023-03-14T08:13:36;10.10;99.90
28438;DHT22;15667;52.376;9.708;2023-03-14T08:16:01;9.70;99.90
28438;DHT22;15667;52.376;9.708;2023-03-14T08:18:27;10.10;99.90
28438;DHT22;15667;52.376;9.708;2023-03-14T08:20:53;10.20;99.90
28438;DHT22;15667;52.376;9.708;2023-03-14T08:23:18;10.50;99.90
28438;DHT22;15667;52.376;9.708;2023-03-14T08:28:10;10.30;99.90
28438;DHT22;15667;52.376;9.708;2023-03-14T08:30:35;11.10;99.90
28438;DHT22;15667;52.376;9.708;2023-03-14T08:35:27;10.50;99.90
28438;DHT22;15667;52.376;9.708;2023-03-14T08:37:53;11.90;99.90
28438;DHT22;15667;52.376;9.708;2023-03-14T08:40:19;10.90;99.90
28438;DHT22;15667;52.376;9.708;2023-03-14T08:42:45;10.90;99.90
28438;DHT22;15667;52.376;9.708;2023-03-14T08:45:12;11.30;99.90
28438;DHT22;15667;52.376;9.708;2023-03-14T08:47:39;10.80;99.90
28438;DHT22;15667;52.376;9.708;2023-03-14T08:50:06;10.60;99.90
28438;DHT22;15667;52.376;9.708;2023-03-14T08:52:32;10.60;99.90
28438;DHT22;15667;52.376;9.708;2023-03-14T08:54:58;10.50;99.90
28438;DHT22;15667;52.376;9.708;2023-03-14T08:57:24;10.90;99.90
28438;DHT22;15667;52.376;9.708;2023-03-14T08:59:54;11.10;99.90
28438;DHT22;15667;52.376;9.708;2023-03-14T09:02:20;11.70;99.90
28438;DHT22;15667;52.376;9.708;2023-03-14T09:04:46;10.70;99.90
28438;DHT22;15667;52.376;9.708;2023-03-14T09:07:12;10.50;99.90
28438;DHT22;15667;52.376;9.708;2023-03-14T09:09:37;11.60;99.90
28438;DHT22;15667;52.376;9.708;2023-03-14T09:12:03;10.40;99.90
28438;DHT22;15667;52.376;9.708;2023-03-14T09:14:30;10.50;99.90
28438;DHT22;15667;52.376;9.708;2023-03-14T09:16:55;10.90;99.90
28438;DHT22;15667;52.376;9.708;2023-03-14T09:19:21;10.70;99.90
28438;DHT22;15667;52.376;9.708;2023-03-14T09:21:47;12.10;99.90
28438;DHT22;15667;52.376;9.708;2023-03-14T09:24:12;10.50;99.90
28438;DHT22;15667;52.376;9.708;2023-03-14T09:26:38;10.60;99.90
28438;DHT22;15667;52.376;9.708;2023-03-14T09:29:04;11.40;99.90
28438;DHT22;15667;52.376;9.708;2023-03-14T09:31:29;10.80;99.90
28438;DHT22;15667;52.376;9.708;2023-03-14T09:33:55;11.00;99.90
28438;DHT22;15667;52.376;9.708;2023-03-14T09:38:47;11.40;99.90
28438;DHT22;15667;52.376;9.708;2023-03-14T09:41:18;11.70;99.90
28438;DHT22;15667;52.376;9.708;2023-03-14T09:43:47;13.50;99.90
28438;DHT22;15667;52.376;9.708;2023-03-14T09:48:43;11.40;99.90
28438;DHT22;15667;52.376;9.708;2023-03-14T09:51:17;12.90;99.90
28438;DHT22;15667;52.376;9.708;2023-03-14T09:53:48;11.70;99.90
28438;DHT22;15667;52.376;9.708;2023-03-14T09:56:21;13.10;99.90
28438;DHT22;15667;52.376;9.708;2023-03-14T09:58:52;12.70;99.90
28438;DHT22;15667;52.376;9.708;2023-03-14T10:01:24;13.30;99.90
28438;DHT22;15667;52.376;9.708;2023-03-14T10:03:51;13.00;99.90
28438;DHT22;15667;52.376;9.708;2023-03-14T10:06:18;14.60;99.90
28438;DHT22;15667;52.376;9.708;2023-03-14T10:08:44;13.10;99.90
28438;DHT22;15667;52.376;9.708;2023-03-14T10:11:14;12.70;99.90
28438;DHT22;15667;52.376;9.708;2023-03-14T10:16:45;12.60;99.90
28438;DHT22;15667;52.376;9.708;2023-03-14T10:19:13;13.20;99.90
28438;DHT22;15667;52.376;9.708;2023-03-14T10:21:52;12.90;99.90
28438;DHT22;15667;52.376;9.708;2023-03-14T10:24:27;14.90;99.90
28438;DHT22;15667;52.376;9.708;2023-03-14T10:26:58;12.90;99.90
28438;DHT22;15667;52.376;9.708;2023-03-14T10:29:23;13.80;99.90
28438;DHT22;15667;52.376;9.708;2023-03-14T10:32:05;13.00;99.90
28438;DHT22;15667;52.376;9.708;2023-03-14T10:34:37;12.80;99.90
28438;DHT22;15667;52.376;9.708;2023-03-14T10:37:23;12.50;99.90
28438;DHT22;15667;52.376;9.708;2023-03-14T10:39:53;12.80;99.90
28438;DHT22;15667;52.376;9.708;2023-03-14T10:42:27;12.40;99.90
28438;DHT22;15667;52.376;9.708;2023-03-14T10:44:57;12.50;99.90
28438;DHT22;15667;52.376;9.708;2023-03-14T10:47:26;12.20;99.90
28438;DHT22;15667;52.376;9.708;2023-03-14T10:49:54;13.50;99.90
28438;DHT22;15667;52.376;9.708;2023-03-14T10:52:27;12.30;99.90
28438;DHT22;15667;52.376;9.708;2023-03-14T10:55:03;12.40;99.90
28438;DHT22;15667;52.376;9.708;2023-03-14T10:57:39;12.40;99.90
28438;DHT22;15667;52.376;9.708;2023-03-14T11:00:08;12.50;99.90
28438;DHT22;15667;52.376;9.708;2023-03-14T11:05:30;12.30;99.90
28438;DHT22;15667;52.376;9.708;2023-03-14T11:08:20;12.20;99.90
28438;DHT22;15667;52.376;9.708;2023-03-14T11:10:57;14.50;99.90
28438;DHT22;15667;52.376;9.708;2023-03-14T11:13:34;12.10;99.90
28438;DHT22;15667;52.376;9.708;2023-03-14T11:16:22;12.10;99.90
28438;DHT22;15667;52.376;9.708;2023-03-14T11:19:01;12.00;99.90
28438;DHT22;15667;52.376;9.708;2023-03-14T11:22:00;11.80;99.90
28438;DHT22;15667;52.376;9.708;2023-03-14T11:24:55;11.10;99.90
28438;DHT22;15667;52.376;9.708;2023-03-14T11:27:27;9.10;99.90
28438;DHT22;15667;52.376;9.708;2023-03-14T11:32:56;8.40;99.90
28438;DHT22;15667;52.376;9.708;2023-03-14T11:35:36;7.70;99.90
28438;DHT22;15667;52.376;9.708;2023-03-14T11:38:28;7.30;99.90
28438;DHT22;15667;52.376;9.708;2023-03-14T11:40:57;6.90;99.90
28438;DHT22;15667;52.376;9.708;2023-03-14T11:43:35;6.70;99.90
28438;DHT22;15667;52.376;9.708;2023-03-14T11:48:59;6.70;99.90
28438;DHT22;15667;52.376;9.708;2023-03-14T11:51:34;6.80;99.90
28438;DHT22;15667;52.376;9.708;2023-03-14T11:54:13;6.60;99.90
28438;DHT22;15667;52.376;9.708;2023-03-14T11:56:46;6.50;99.90
28438;DHT22;15667;52.376;9.708;2023-03-14T11:59:24;7.80;99.90
28438;DHT22;15667;52.376;9.708;2023-03-14T12:07:27;5.90;99.90
28438;DHT22;15667;52.376;9.708;2023-03-14T12:09:54;5.60;99.90
28438;DHT22;15667;52.376;9.708;2023-03-14T12:12:23;5.40;99.90
28438;DHT22;15667;52.376;9.708;2023-03-14T12:15:00;5.30;99.90
28438;DHT22;15667;52.376;9.708;2023-03-14T12:17:36;5.30;99.90
28438;DHT22;15667;52.376;9.708;2023-03-14T12:20:16;5.00;99.90
28438;DHT22;15667;52.376;9.708;2023-03-14T12:22:54;4.80;99.90
28438;DHT22;15667;52.376;9.708;2023-03-14T12:25:26;4.50;99.90
28438;DHT22;15667;52.376;9.708;2023-03-14T12:30:34;4.40;99.90
28438;DHT22;15667;52.376;9.708;2023-03-14T12:43:30;4.40;99.90
28438;DHT22;15667;52.376;9.708;2023-03-14T12:46:19;4.40;99.90
28438;DHT22;15667;52.376;9.708;2023-03-14T12:49:07;4.70;99.90
28438;DHT22;15667;52.376;9.708;2023-03-14T12:51:42;4.80;99.90
28438;DHT22;15667;52.376;9.708;2023-03-14T12:54:31;4.50;99.90
28438;DHT22;15667;52.376;9.708;2023-03-14T12:59:46;4.40;99.90
28438;DHT22;15667;52.376;9.708;2023-03-14T13:05:19;4.30;99.90
28438;DHT22;15667;52.376;9.708;2023-03-14T13:12:54;4.50;99.90
28438;DHT22;15667;52.376;9.708;2023-03-14T13:15:31;4.70;99.90
28438;DHT22;15667;52.376;9.708;2023-03-14T13:18:13;4.30;99.90
28438;DHT22;15667;52.376;9.708;2023-03-14T13:20:53;4.90;99.90
28438;DHT22;15667;52.376;9.708;2023-03-14T13:25:46;6.50;99.90
28438;DHT22;15667;52.376;9.708;2023-03-14T13:28:14;5.30;99.90
28438;DHT22;15667;52.376;9.708;2023-03-14T13:30:42;5.30;99.90
28438;DHT22;15667;52.376;9.708;2023-03-14T13:33:16;5.40;99.90
28438;DHT22;15667;52.376;9.708;2023-03-14T13:35:48;5.30;99.90
28438;DHT22;15667;52.376;9.708;2023-03-14T13:38:17;5.50;99.90
28438;DHT22;15667;52.376;9.708;2023-03-14T13:40:45;5.20;99.90
28438;DHT22;15667;52.376;9.708;2023-03-14T13:45:55;5.10;99.90
28438;DHT22;15667;52.376;9.708;2023-03-14T13:48:25;5.30;99.90
28438;DHT22;15667;52.376;9.708;2023-03-14T13:50:54;5.20;99.90
28438;DHT22;15667;52.376;9.708;2023-03-14T13:53:21;5.30;99.90
28438;DHT22;15667;52.376;9.708;2023-03-14T13:58:24;5.40;99.90
28438;DHT22;15667;52.376;9.708;2023-03-14T14:01:15;5.40;99.90
28438;DHT22;15667;52.376;9.708;2023-03-14T14:03:45;5.50;99.90
28438;DHT22;15667;52.376;9.708;2023-03-14T14:06:32;5.70;99.90
28438;DHT22;15667;52.376;9.708;2023-03-14T14:09:17;5.80;99.90
28438;DHT22;15667;52.376;9.708;2023-03-14T14:11:56;5.60;99.90
28438;DHT22;15667;52.376;9.708;2023-03-14T14:14:43;7.40;99.90
28438;DHT22;15667;52.376;9.708;2023-03-14T14:17:12;5.50;99.90
28438;DHT22;15667;52.376;9.708;2023-03-14T14:19:40;5.50;99.90
28438;DHT22;15667;52.376;9.708;2023-03-14T14:22:08;5.30;99.90
28438;DHT22;15667;52.376;9.708;2023-03-14T14:24:36;5.40;99.90
28438;DHT22;15667;52.376;9.708;2023-03-14T14:27:41;5.40;99.90
28438;DHT22;15667;52.376;9.708;2023-03-14T14:32:43;5.60;99.90
28438;DHT22;15667;52.376;9.708;2023-03-14T14:35:22;5.60;99.90
28438;DHT22;15667;52.376;9.708;2023-03-14T14:37:48;6.10;99.90
28438;DHT22;15667;52.376;9.708;2023-03-14T14:42:41;5.90;99.90
28438;DHT22;15667;52.376;9.708;2023-03-14T14:45:16;5.70;99.90
28438;DHT22;15667;52.376;9.708;2023-03-14T14:47:53;5.90;99.90
28438;DHT22;15667;52.376;9.708;2023-03-14T14:50:29;6.00;99.90
28438;DHT22;15667;52.376;9.708;2023-03-14T14:53:01;6.00;99.90
28438;DHT22;15667;52.376;9.708;2023-03-14T14:55:38;6.00;99.90
28438;DHT22;15667;52.376;9.708;2023-03-14T15:00:54;6.10;99.90
28438;DHT22;15667;52.376;9.708;2023-03-14T15:03:21;6.10;99.90
28438;DHT22;15667;52.376;9.708;2023-03-14T15:05:46;6.20;99.90
28438;DHT22;15667;52.376;9.708;2023-03-14T15:08:13;6.30;99.90
28438;DHT22;15667;52.376;9.708;2023-03-14T15:10:39;6.20;99.90
28438;DHT22;15667;52.376;9.708;2023-03-14T15:13:04;6.10;99.90
28438;DHT22;15667;52.376;9.708;2023-03-14T15:15:30;6.30;99.90
28438;DHT22;15667;52.376;9.708;2023-03-14T15:17:56;6.20;99.90
28438;DHT22;15667;52.376;9.708;2023-03-14T15:20:22;6.50;99.90
28438;DHT22;15667;52.376;9.708;2023-03-14T15:22:51;6.30;99.90
28438;DHT22;15667;52.376;9.708;2023-03-14T15:25:16;6.30;99.90
28438;DHT22;15667;52.376;9.708;2023-03-14T15:27:42;6.30;99.90
28438;DHT22;15667;52.376;9.708;2023-03-14T15:30:12;7.00;99.90
28438;DHT22;15667;52.376;9.708;2023-03-14T15:32:38;6.80;99.90
28438;DHT22;15667;52.376;9.708;2023-03-14T15:35:04;7.40;99.90
28438;DHT22;15667;52.376;9.708;2023-03-14T15:37:30;6.80;99.90
28438;DHT22;15667;52.376;9.708;2023-03-14T15:39:56;6.80;99.90
28438;DHT22;15667;52.376;9.708;2023-03-14T15:42:23;7.40;99.90
28438;DHT22;15667;52.376;9.708;2023-03-14T15:44:49;6.60;99.90
28438;DHT22;15667;52.376;9.708;2023-03-14T15:47:14;6.50;99.90
28438;DHT22;15667;52.376;9.708;2023-03-14T15:49:40;6.40;99.90
28438;DHT22;15667;52.376;9.708;2023-03-14T15:52:06;6.50;99.90
28438;DHT22;15667;52.376;9.708;2023-03-14T15:54:34;6.40;99.90
28438;DHT22;15667;52.376;9.708;2023-03-14T15:56:59;6.30;99.90
28438;DHT22;15667;52.376;9.708;2023-03-14T15:59:25;6.40;99.90
28438;DHT22;15667;52.376;9.708;2023-03-14T16:01:51;6.30;99.90
28438;DHT22;15667;52.376;9.708;2023-03-14T16:04:17;6.40;99.90
28438;DHT22;15667;52.376;9.708;2023-03-14T16:06:43;6.30;99.90
28438;DHT22;15667;52.376;9.708;2023-03-14T16:09:11;6.30;99.90
28438;DHT22;15667;52.376;9.708;2023-03-14T16:11:37;7.20;99.90
28438;DHT22;15667;52.376;9.708;2023-03-14T16:14:05;6.30;99.90
28438;DHT22;15667;52.376;9.708;2023-03-14T16:16:31;6.20;99.90
28438;DHT22;15667;52.376;9.708;2023-03-14T16:18:57;6.20;99.90
28438;DHT22;15667;52.376;9.708;2023-03-14T16:21:23;6.30;99.90
28438;DHT22;15667;52.376;9.708;2023-03-14T16:23:49;6.10;99.90
28438;DHT22;15667;52.376;9.708;2023-03-14T16:26:16;7.50;99.90
28438;DHT22;15667;52.376;9.708;2023-03-14T16:28:43;7.10;99.90
28438;DHT22;15667;52.376;9.708;2023-03-14T16:31:12;6.40;99.90
28438;DHT22;15667;52.376;9.708;2023-03-14T16:33:39;7.40;99.90
28438;DHT22;15667;52.376;9.708;2023-03-14T16:36:06;7.90;99.90
28438;DHT22;15667;52.376;9.708;2023-03-14T16:38:37;6.30;99.90
28438;DHT22;15667;52.376;9.708;2023-03-14T16:41:05;6.30;99.90
28438;DHT22;15667;52.376;9.708;2023-03-14T16:43:31;6.30;99.90
28438;DHT22;15667;52.376;9.708;2023-03-14T16:46:05;6.30;99.90
28438;DHT22;15667;52.376;9.708;2023-03-14T16:48:31;6.40;99.90
28438;DHT22;15667;52.376;9.708;2023-03-14T16:53:23;6.50;99.90
28438;DHT22;15667;52.376;9.708;2023-03-14T16:55:51;6.30;99.90
28438;DHT22;15667;52.376;9.708;2023-03-14T16:58:17;6.50;99.90
28438;DHT22;15667;52.376;9.708;2023-03-14T17:00:46;7.00;99.90
28438;DHT22;15667;52.376;9.708;2023-03-14T17:03:11;6.80;99.90
28438;DHT22;15667;52.376;9.708;2023-03-14T17:05:37;7.90;99.90
28438;DHT22;15667;52.376;9.708;2023-03-14T17:08:08;6.80;99.90
28438;DHT22;15667;52.376;9.708;2023-03-14T17:10:34;5.80;99.90
28438;DHT22;15667;52.376;9.708;2023-03-14T17:13:00;7.80;99.90
28438;DHT22;15667;52.376;9.708;2023-03-14T17:15:25;5.60;99.90
28438;DHT22;15667;52.376;9.708;2023-03-14T17:17:51;7.80;99.90
28438;DHT22;15667;52.376;9.708;2023-03-14T17:20:16;6.00;99.90
28438;DHT22;15667;52.376;9.708;2023-03-14T17:22:42;4.70;99.90
28438;DHT22;15667;52.376;9.708;2023-03-14T17:27:34;5.60;99.90
28438;DHT22;15667;52.376;9.708;2023-03-14T17:30:01;5.90;99.90
28438;DHT22;15667;52.376;9.708;2023-03-14T17:32:27;5.90;99.90
28438;DHT22;15667;52.376;9.708;2023-03-14T17:34:53;7.20;99.90
28438;DHT22;15667;52.376;9.708;2023-03-14T17:37:22;7.50;99.90
28438;DHT22;15667;52.376;9.708;2023-03-14T17:39:48;5.90;99.90
28438;DHT22;15667;52.376;9.708;2023-03-14T17:42:13;7.10;99.90
28438;DHT22;15667;52.376;9.708;2023-03-14T17:44:39;5.80;99.90
28438;DHT22;15667;52.376;9.708;2023-03-14T17:47:05;6.80;99.90
28438;DHT22;15667;52.376;9.708;2023-03-14T17:49:31;5.80;99.90
28438;DHT22;15667;52.376;9.708;2023-03-14T17:51:57;5.80;99.90
28438;DHT22;15667;52.376;9.708;2023-03-14T17:54:22;5.70;99.90
28438;DHT22;15667;52.376;9.708;2023-03-14T17:56:48;5.60;99.90
28438;DHT22;15667;52.376;9.708;2023-03-14T17:59:16;5.50;99.90
28438;DHT22;15667;52.376;9.708;2023-03-14T18:01:42;5.50;99.90
28438;DHT22;15667;52.376;9.708;2023-03-14T18:04:08;5.40;99.90
28438;DHT22;15667;52.376;9.708;2023-03-14T18:06:35;5.30;99.90
28438;DHT22;15667;52.376;9.708;2023-03-14T18:09:01;5.20;99.90
28438;DHT22;15667;52.376;9.708;2023-03-14T18:11:29;5.30;99.90
28438;DHT22;15667;52.376;9.708;2023-03-14T18:13:54;5.30;99.90
28438;DHT22;15667;52.376;9.708;2023-03-14T18:16:20;5.20;99.90
28438;DHT22;15667;52.376;9.708;2023-03-14T18:18:46;5.20;99.90
28438;DHT22;15667;52.376;9.708;2023-03-14T18:21:14;5.20;99.90
28438;DHT22;15667;52.376;9.708;2023-03-14T18:23:40;5.20;99.90
28438;DHT22;15667;52.376;9.708;2023-03-14T18:26:06;5.30;99.90
28438;DHT22;15667;52.376;9.708;2023-03-14T18:28:31;5.30;99.90
28438;DHT22;15667;52.376;9.708;2023-03-14T18:31:05;5.20;99.90
28438;DHT22;15667;52.376;9.708;2023-03-14T18:33:30;5.20;99.90
28438;DHT22;15667;52.376;9.708;2023-03-14T18:36:03;5.10;99.90
28438;DHT22;15667;52.376;9.708;2023-03-14T18:38:29;5.10;99.90
28438;DHT22;15667;52.376;9.708;2023-03-14T18:40:54;5.10;99.90
28438;DHT22;15667;52.376;9.708;2023-03-14T18:43:20;5.10;99.90
28438;DHT22;15667;52.376;9.708;2023-03-14T18:45:45;5.10;99.90
28438;DHT22;15667;52.376;9.708;2023-03-14T18:48:11;5.00;99.90
28438;DHT22;15667;52.376;9.708;2023-03-14T18:50:37;5.00;99.90
28438;DHT22;15667;52.376;9.708;2023-03-14T18:53:02;5.00;99.90
28438;DHT22;15667;52.376;9.708;2023-03-14T18:55:28;5.00;99.90
28438;DHT22;15667;52.376;9.708;2023-03-14T18:57:53;5.10;99.90
28438;DHT22;15667;52.376;9.708;2023-03-14T19:00:20;4.90;99.90
28438;DHT22;15667;52.376;9.708;2023-03-14T19:02:46;4.80;99.90
28438;DHT22;15667;52.376;9.708;2023-03-14T19:05:14;4.80;99.90
28438;DHT22;15667;52.376;9.708;2023-03-14T19:07:40;4.60;99.90
28438;DHT22;15667;52.376;9.708;2023-03-14T19:10:12;4.50;99.90
28438;DHT22;15667;52.376;9.708;2023-03-14T19:12:38;4.50;99.90
28438;DHT22;15667;52.376;9.708;2023-03-14T19:15:03;4.60;99.90
28438;DHT22;15667;52.376;9.708;2023-03-14T19:17:30;4.60;99.90
28438;DHT22;15667;52.376;9.708;2023-03-14T19:19:55;4.60;99.90
28438;DHT22;15667;52.376;9.708;2023-03-14T19:22:21;4.60;99.90
28438;DHT22;15667;52.376;9.708;2023-03-14T19:24:47;4.50;99.90
28438;DHT22;15667;52.376;9.708;2023-03-14T19:27:12;4.40;99.90
28438;DHT22;15667;52.376;9.708;2023-03-14T19:29:38;4.40;99.90
28438;DHT22;15667;52.376;9.708;2023-03-14T19:32:07;4.40;99.90
28438;DHT22;15667;52.376;9.708;2023-03-14T19:34:34;4.40;99.90
28438;DHT22;15667;52.376;9.708;2023-03-14T19:36:59;4.40;99.90
28438;DHT22;15667;52.376;9.708;2023-03-14T19:39:25;4.30;99.90
28438;DHT22;15667;52.376;9.708;2023-03-14T19:41:50;4.30;99.90
28438;DHT22;15667;52.376;9.708;2023-03-14T19:44:22;4.30;99.90
28438;DHT22;15667;52.376;9.708;2023-03-14T19:46:48;4.30;99.90
28438;DHT22;15667;52.376;9.708;2023-03-14T19:49:14;4.30;99.90
28438;DHT22;15667;52.376;9.708;2023-03-14T19:51:40;4.40;99.90
28438;DHT22;15667;52.376;9.708;2023-03-14T19:54:06;5.80;99.90
28438;DHT22;15667;52.376;9.708;2023-03-14T19:56:32;4.10;99.90
28438;DHT22;15667;52.376;9.708;2023-03-14T19:58:59;6.00;99.90
28438;DHT22;15667;52.376;9.708;2023-03-14T20:01:24;4.20;99.90
28438;DHT22;15667;52.376;9.708;2023-03-14T20:03:51;4.10;99.90
28438;DHT22;15667;52.376;9.708;2023-03-14T20:06:17;4.10;99.90
28438;DHT22;15667;52.376;9.708;2023-03-14T20:08:42;4.90;99.90
28438;DHT22;15667;52.376;9.708;2023-03-14T20:11:09;4.00;99.90
28438;DHT22;15667;52.376;9.708;2023-03-14T20:13:35;4.50;99.90
28438;DHT22;15667;52.376;9.708;2023-03-14T20:16:06;3.90;99.90